Time;durP1;ratioP1;P1;durP2;ratioP2;P2;SDS_P1;SDS_P2;PMS_P1;PMS_P2;Temp;Humidity;BMP_temperature;BMP_pressure;BME280_temperature;BME280_humidity;BME280_pressure;Samples;Min_cycle;Max_cycle;Signal;HPM_P1;HPM_P2
2022/08/15 00:00:07;;;;;;;7.27;5.80;;;23.00;1.00;;;;;;5026113;28;20861;-78
2022/08/15 00:02:39;;;;;;;16.83;5.70;;;23.00;1.00;;;;;;5030778;28;20541;-78
2022/08/15 00:05:22;;;;;;;9.80;5.43;;;22.90;1.00;;;;;;5026054;28;20532;-78
2022/08/15 00:07:54;;;;;;;7.07;5.50;;;22.90;1.00;;;;;;5014243;28;20873;-78
2022/08/15 00:10:23;;;;;;;9.23;6.20;;;22.90;1.00;;;;;;5022299;28;20918;-78
2022/08/15 00:13:01;;;;;;;8.57;6.10;;;22.90;1.00;;;;;;5027532;28;20958;-78
2022/08/15 00:15:30;;;;;;;5.13;4.63;;;22.90;1.00;;;;;;5018567;28;20406;-78
2022/08/15 00:17:56;;;;;;;10.30;5.00;;;22.80;1.00;;;;;;5015290;28;20432;-78
2022/08/15 00:20:22;;;;;;;5.17;4.63;;;22.80;1.00;;;;;;5035731;28;20441;-74
2022/08/15 00:22:50;;;;;;;6.17;4.50;;;22.80;1.00;;;;;;5019281;28;20198;-74
2022/08/15 00:25:16;;;;;;;6.60;4.47;;;22.90;1.00;;;;;;5029776;28;20167;-74
2022/08/15 00:27:43;;;;;;;4.30;3.97;;;22.90;1.00;;;;;;5018318;28;20402;-74
2022/08/15 00:30:12;;;;;;;4.67;4.27;;;23.00;1.00;;;;;;5031145;28;20461;-73
2022/08/15 00:32:38;;;;;;;4.67;4.27;;;23.00;1.00;;;;;;5022002;28;20431;-74
2022/08/15 00:35:35;;;;;;;5.83;4.10;;;23.10;1.00;;;;;;5020553;28;20430;-74
2022/08/15 00:37:55;;;;;;;9.93;4.20;;;23.10;1.00;;;;;;5013104;28;20418;-74
2022/08/15 00:41:38;;;;;;;3.83;3.43;;;23.10;1.00;;;;;;5027184;28;20452;-74
2022/08/15 00:43:18;;;;;;;4.93;4.00;;;23.10;1.00;;;;;;5031133;28;20609;-74
2022/08/15 00:45:44;;;;;;;11.70;4.13;;;23.10;1.00;;;;;;5022569;28;20456;-73
2022/08/15 00:50:54;;;;;;;5.07;3.70;;;23.20;1.00;;;;;;5021526;28;20479;-78
2022/08/15 00:53:20;;;;;;;5.20;4.03;;;23.20;1.00;;;;;;5025998;28;20431;-78
2022/08/15 00:56:29;;;;;;;4.33;3.50;;;23.10;1.00;;;;;;5029340;28;20196;-78
2022/08/15 00:59:08;;;;;;;8.00;4.43;;;23.10;1.00;;;;;;5022784;28;20434;-78
2022/08/15 01:01:35;;;;;;;6.13;4.00;;;23.00;1.00;;;;;;5033488;28;20436;-78
2022/08/15 01:04:09;;;;;;;6.73;3.73;;;23.00;1.00;;;;;;5024052;28;20426;-78
2022/08/15 01:06:37;;;;;;;13.83;4.63;;;23.00;1.00;;;;;;5025268;28;20458;-74
2022/08/15 01:09:08;;;;;;;4.30;3.50;;;23.00;1.00;;;;;;5023927;28;20444;-74
2022/08/15 01:11:47;;;;;;;16.50;3.90;;;23.00;1.00;;;;;;5024785;28;20983;-74
2022/08/15 01:14:19;;;;;;;6.23;3.50;;;22.90;1.00;;;;;;5027332;28;20926;-74
2022/08/15 01:16:45;;;;;;;3.87;3.57;;;22.90;1.00;;;;;;5023797;28;20421;-74
2022/08/15 01:19:20;;;;;;;3.47;3.17;;;22.90;1.00;;;;;;5019099;28;20416;-74
2022/08/15 01:22:13;;;;;;;5.17;3.47;;;22.90;1.00;;;;;;5038436;28;20254;-78
2022/08/15 01:25:06;;;;;;;6.17;3.30;;;22.90;1.00;;;;;;5032128;28;21076;-79
2022/08/15 01:27:54;;;;;;;5.00;3.33;;;23.00;1.00;;;;;;5018983;28;20768;-78
2022/08/15 01:30:50;;;;;;;10.20;4.37;;;23.00;1.00;;;;;;5028260;28;20500;-78
2022/08/15 01:36:42;;;;;;;3.47;3.17;;;22.90;1.00;;;;;;5025656;28;20459;-74
2022/08/15 01:39:09;;;;;;;4.17;3.30;;;23.00;1.00;;;;;;5025495;28;20446;-74
2022/08/15 01:41:59;;;;;;;10.93;3.43;;;23.00;1.00;;;;;;5029845;28;20462;-74
2022/08/15 01:44:43;;;;;;;4.00;3.27;;;23.00;1.00;;;;;;5024570;28;20399;-74
2022/08/15 01:47:22;;;;;;;8.43;3.13;;;23.00;1.00;;;;;;5023011;28;21005;-74
2022/08/15 01:49:53;;;;;;;5.17;3.60;;;23.00;1.00;;;;;;5033048;28;20423;-74
2022/08/15 01:52:22;;;;;;;3.87;3.00;;;23.00;1.00;;;;;;5028358;28;20476;-74
2022/08/15 01:54:50;;;;;;;10.80;3.30;;;23.10;1.00;;;;;;5022493;28;20525;-74
2022/08/15 01:57:16;;;;;;;6.63;3.20;;;23.00;1.00;;;;;;5034842;28;20466;-74
2022/08/15 01:59:42;;;;;;;4.70;3.27;;;23.00;1.00;;;;;;5019511;28;20409;-74
2022/08/15 02:02:11;;;;;;;9.00;3.50;;;23.00;1.00;;;;;;5016322;28;20205;-74
2022/08/15 02:04:42;;;;;;;6.93;3.00;;;23.10;1.00;;;;;;5016534;28;20826;-74
2022/08/15 02:07:28;;;;;;;3.73;3.20;;;23.00;1.00;;;;;;5019245;28;20432;-78
2022/08/15 02:09:55;;;;;;;7.97;3.43;;;23.10;1.00;;;;;;5026119;28;20420;-78
2022/08/15 02:12:34;;;;;;;5.57;3.30;;;23.10;1.00;;;;;;5016867;28;20428;-78
2022/08/15 02:15:05;;;;;;;7.50;3.20;;;23.10;1.00;;;;;;5016332;28;20421;-78
2022/08/15 02:17:35;;;;;;;9.50;3.30;;;23.10;1.00;;;;;;5021558;28;20476;-78
2022/08/15 02:20:18;;;;;;;4.17;3.20;;;23.10;1.00;;;;;;5017642;28;20423;-78
2022/08/15 02:22:59;;;;;;;4.33;3.20;;;23.10;1.00;;;;;;5031100;28;20798;-78
2022/08/15 02:25:41;;;;;;;3.60;3.30;;;23.10;1.00;;;;;;5031638;28;20933;-78
2022/08/15 02:28:07;;;;;;;4.40;3.33;;;23.20;1.00;;;;;;5015016;28;20419;-78
2022/08/15 02:30:42;;;;;;;7.20;3.67;;;23.20;1.00;;;;;;5031408;28;20431;-78
2022/08/15 02:33:12;;;;;;;6.70;3.53;;;23.10;1.00;;;;;;5034449;28;20523;-78
2022/08/15 02:35:41;;;;;;;5.57;3.83;;;23.20;1.00;;;;;;5020355;28;21001;-77
2022/08/15 02:38:24;;;;;;;12.47;3.70;;;23.20;1.00;;;;;;5023601;28;20904;-78
2022/08/15 02:40:53;;;;;;;5.07;4.10;;;23.20;1.00;;;;;;5022226;28;20462;-78
2022/08/15 02:43:44;;;;;;;6.13;3.43;;;23.20;1.00;;;;;;5019161;28;20453;-78
2022/08/15 02:46:10;;;;;;;7.70;3.70;;;23.20;1.00;;;;;;5015021;28;20388;-78
2022/08/15 02:48:54;;;;;;;14.07;3.80;;;23.30;1.00;;;;;;5015532;28;20427;-78
2022/08/15 02:51:21;;;;;;;8.20;3.53;;;23.30;1.00;;;;;;5031088;28;20415;-78
2022/08/15 02:53:50;;;;;;;11.53;3.67;;;23.30;1.00;;;;;;5016183;28;20415;-78
2022/08/15 02:56:20;;;;;;;6.10;3.57;;;23.30;1.00;;;;;;5024274;28;21111;-78
2022/08/15 02:58:47;;;;;;;7.23;3.60;;;23.20;1.00;;;;;;5019955;28;20794;-78
2022/08/15 03:01:20;;;;;;;6.37;3.60;;;23.30;1.00;;;;;;5033356;28;20877;-78
2022/08/15 03:03:59;;;;;;;9.67;3.60;;;23.30;1.00;;;;;;5017302;28;20479;-77
2022/08/15 03:06:30;;;;;;;8.90;3.57;;;23.20;1.00;;;;;;5023457;28;20417;-74
2022/08/15 03:09:04;;;;;;;7.23;3.57;;;23.30;1.00;;;;;;5017187;28;20522;-74
2022/08/15 03:11:38;;;;;;;21.00;3.97;;;23.20;1.00;;;;;;5029170;28;20411;-74
2022/08/15 03:14:08;;;;;;;9.97;4.07;;;23.30;1.00;;;;;;5014094;28;20510;-74
2022/08/15 03:16:40;;;;;;;23.13;3.83;;;23.30;1.00;;;;;;5027010;28;20442;-74
2022/08/15 03:19:08;;;;;;;8.63;3.60;;;23.30;1.00;;;;;;5018467;28;20423;-74
2022/08/15 03:21:35;;;;;;;7.33;3.63;;;23.30;1.00;;;;;;5030316;28;20408;-78
2022/08/15 03:24:12;;;;;;;8.00;3.80;;;23.30;1.00;;;;;;5018629;28;20423;-78
2022/08/15 03:26:38;;;;;;;8.50;4.00;;;23.30;1.00;;;;;;5017753;28;20447;-78
2022/08/15 03:29:06;;;;;;;5.33;3.93;;;23.30;1.00;;;;;;5029719;28;20464;-78
2022/08/15 03:31:36;;;;;;;12.63;3.93;;;23.30;1.00;;;;;;5013992;28;20710;-78
2022/08/15 03:34:02;;;;;;;10.37;3.97;;;23.30;1.00;;;;;;5018963;28;20461;-78
2022/08/15 03:36:28;;;;;;;9.13;3.73;;;23.30;1.00;;;;;;5026312;28;20912;-74
2022/08/15 03:38:59;;;;;;;6.70;3.63;;;23.30;1.00;;;;;;5024947;28;20431;-74
2022/08/15 03:41:30;;;;;;;3.67;3.37;;;23.20;1.00;;;;;;5021701;28;20203;-74
2022/08/15 03:43:55;;;;;;;5.33;3.30;;;23.20;1.00;;;;;;5015913;28;20953;-74
2022/08/15 03:46:21;;;;;;;9.60;3.90;;;23.20;1.00;;;;;;5016680;28;20427;-74
2022/08/15 03:48:52;;;;;;;5.40;3.83;;;23.20;1.00;;;;;;5028805;28;20234;-74
2022/08/15 03:51:22;;;;;;;9.00;3.70;;;23.10;1.00;;;;;;5015196;28;20420;-75
2022/08/15 03:53:50;;;;;;;14.50;3.90;;;23.20;1.00;;;;;;5029688;28;20432;-78
2022/08/15 03:56:20;;;;;;;8.43;3.80;;;23.10;1.00;;;;;;5031671;28;20427;-78
2022/08/15 03:59:23;;;;;;;5.40;3.80;;;23.10;1.00;;;;;;5023032;28;20454;-78
2022/08/15 04:01:49;;;;;;;12.47;3.67;;;23.10;1.00;;;;;;5026060;28;20496;-79
2022/08/15 04:04:17;;;;;;;4.70;3.00;;;23.10;1.00;;;;;;5029914;28;20466;-80
2022/08/15 04:06:48;;;;;;;4.73;3.67;;;23.10;1.00;;;;;;5017979;28;20651;-80
2022/08/15 04:09:14;;;;;;;5.00;3.50;;;23.10;1.00;;;;;;5023336;28;20410;-81
2022/08/15 04:11:48;;;;;;;7.53;3.47;;;23.00;1.00;;;;;;5027645;28;20506;-80
2022/08/15 04:14:18;;;;;;;5.73;4.10;;;23.10;1.00;;;;;;5031520;28;20446;-80
2022/08/15 04:17:05;;;;;;;13.90;3.67;;;23.00;1.00;;;;;;5035684;28;20435;-80
2022/08/15 04:19:35;;;;;;;11.70;3.80;;;23.00;1.00;;;;;;5022373;28;20427;-80
2022/08/15 04:22:34;;;;;;;6.73;4.20;;;23.00;1.00;;;;;;5034166;28;20490;-80
2022/08/15 04:25:03;;;;;;;12.73;3.30;;;23.00;1.00;;;;;;5034041;28;20404;-80
2022/08/15 04:27:50;;;;;;;7.80;3.40;;;23.00;1.00;;;;;;5032625;28;20433;-80
2022/08/15 04:30:27;;;;;;;7.17;3.77;;;22.90;1.00;;;;;;5024304;28;20430;-80
2022/08/15 04:33:21;;;;;;;7.63;3.83;;;22.90;1.00;;;;;;5030102;28;20449;-80
2022/08/15 04:36:09;;;;;;;14.80;3.50;;;22.90;1.00;;;;;;5030193;28;20494;-81
2022/08/15 04:38:37;;;;;;;10.13;3.97;;;22.90;1.00;;;;;;5026185;28;20411;-79
2022/08/15 04:41:07;;;;;;;4.73;3.67;;;22.90;1.00;;;;;;5031058;28;20505;-79
2022/08/15 04:43:38;;;;;;;5.63;3.60;;;22.80;1.00;;;;;;5028464;28;20447;-80
2022/08/15 04:46:06;;;;;;;13.67;3.87;;;22.80;1.00;;;;;;5017319;28;20916;-79
2022/08/15 04:51:53;;;;;;;6.30;3.30;;;22.80;1.00;;;;;;5019841;28;20406;-78
2022/08/15 04:54:25;;;;;;;7.00;3.20;;;22.80;1.00;;;;;;5036705;28;20508;-79
2022/08/15 04:56:59;;;;;;;7.10;3.60;;;22.80;1.00;;;;;;5022838;28;20213;-79
2022/08/15 04:59:36;;;;;;;10.20;4.00;;;22.80;1.00;;;;;;5031696;28;20446;-79
2022/08/15 05:02:10;;;;;;;4.77;3.70;;;22.70;1.00;;;;;;5022459;28;20456;-78
2022/08/15 05:04:41;;;;;;;13.60;3.80;;;22.80;1.00;;;;;;5031453;28;20430;-78
2022/08/15 05:07:29;;;;;;;9.23;3.77;;;22.80;1.00;;;;;;5026458;28;20408;-78
2022/08/15 05:10:00;;;;;;;6.07;3.37;;;22.80;1.00;;;;;;5017412;28;20400;-78
2022/08/15 05:12:36;;;;;;;5.73;3.10;;;22.80;1.00;;;;;;5033348;28;20411;-78
2022/08/15 05:15:03;;;;;;;13.90;3.13;;;22.80;1.00;;;;;;5022838;28;20395;-78
2022/08/15 05:17:42;;;;;;;5.53;3.50;;;22.80;1.00;;;;;;5036123;28;20422;-81
2022/08/15 05:20:29;;;;;;;5.33;3.13;;;22.80;1.00;;;;;;5017080;28;20424;-82
2022/08/15 05:23:09;;;;;;;4.20;2.70;;;22.90;1.00;;;;;;5019263;28;20491;-82
2022/08/15 05:25:38;;;;;;;11.77;3.60;;;22.90;1.00;;;;;;5000575;28;20943;-79
2022/08/15 05:28:05;;;;;;;9.57;3.63;;;22.80;1.00;;;;;;5016693;28;21128;-78
2022/08/15 05:30:55;;;;;;;5.80;2.93;;;22.90;1.00;;;;;;5028214;28;20433;-78
2022/08/15 05:33:25;;;;;;;8.50;2.80;;;22.90;1.00;;;;;;5033609;28;20415;-77
2022/08/15 05:36:08;;;;;;;2.90;2.63;;;23.00;1.00;;;;;;5031943;28;20427;-77
2022/08/15 05:38:55;;;;;;;3.30;2.60;;;23.10;1.00;;;;;;5026518;28;20414;-78
2022/08/15 05:41:47;;;;;;;7.50;3.00;;;23.10;1.00;;;;;;5026074;28;20786;-79
2022/08/15 05:44:59;;;;;;;6.00;3.00;;;23.10;1.00;;;;;;5020406;28;20420;-78
2022/08/15 05:47:38;;;;;;;7.93;2.87;;;23.20;1.00;;;;;;5013573;28;20428;-78
2022/08/15 05:50:35;;;;;;;3.87;2.73;;;23.30;1.00;;;;;;5025960;28;20916;-79
2022/08/15 05:53:27;;;;;;;6.20;3.20;;;23.30;1.00;;;;;;5013049;28;20800;-78
2022/08/15 05:56:29;;;;;;;15.07;3.13;;;23.40;1.00;;;;;;5026625;28;20428;-80
2022/08/15 05:59:10;;;;;;;4.27;3.10;;;23.40;1.00;;;;;;5027156;28;20453;-80
2022/08/15 06:01:58;;;;;;;6.23;2.77;;;23.40;1.00;;;;;;5032191;28;20410;-80
2022/08/15 06:04:40;;;;;;;4.60;2.90;;;23.30;1.00;;;;;;5025449;28;20434;-79
2022/08/15 06:07:11;;;;;;;6.80;2.80;;;23.30;1.00;;;;;;5019157;28;20502;-79
2022/08/15 06:10:01;;;;;;;5.70;2.20;;;23.30;1.00;;;;;;5016044;28;20533;-79
2022/08/15 06:13:17;;;;;;;4.50;2.60;;;23.30;1.00;;;;;;5030276;28;20449;-79
2022/08/15 06:16:16;;;;;;;12.53;3.10;;;23.40;1.00;;;;;;5032882;28;20424;-79
2022/08/15 06:19:37;;;;;;;3.57;2.60;;;23.40;1.00;;;;;;5020931;28;20431;-78
2022/08/15 06:22:31;;;;;;;11.40;3.13;;;23.50;1.00;;;;;;4969027;28;20569;-80
2022/08/15 06:25:24;;;;;;;6.10;2.60;;;23.40;1.00;;;;;;4973303;28;20445;-79
2022/08/15 06:28:15;;;;;;;8.63;3.00;;;23.30;1.00;;;;;;4954986;28;20782;-80
2022/08/15 06:31:05;;;;;;;4.27;2.87;;;23.30;1.00;;;;;;4973151;28;20427;-79
2022/08/15 06:33:43;;;;;;;4.70;3.03;;;23.30;1.00;;;;;;4968575;28;20447;-80
2022/08/15 06:36:20;;;;;;;6.33;2.60;;;23.20;1.00;;;;;;4967548;28;21019;-79
2022/08/15 06:38:58;;;;;;;5.93;3.17;;;23.30;1.00;;;;;;4964256;28;20438;-80
2022/08/15 06:42:05;;;;;;;7.87;3.13;;;23.40;1.00;;;;;;4970926;28;20524;-80
2022/08/15 06:44:33;;;;;;;6.83;3.10;;;23.30;1.00;;;;;;4973550;28;20425;-78
2022/08/15 06:47:07;;;;;;;13.50;3.03;;;23.20;1.00;;;;;;4973455;28;20427;-77
2022/08/15 06:49:43;;;;;;;15.63;2.90;;;23.30;1.00;;;;;;4970778;28;20429;-91
2022/08/15 06:52:35;;;;;;;9.90;2.90;;;23.40;1.00;;;;;;4973994;28;20418;-90
2022/08/15 07:05:56;;;;;;;5.03;3.10;;;23.80;1.00;;;;;;5031107;28;20911;-87
2022/08/15 07:08:46;;;;;;;6.90;2.90;;;23.90;1.00;;;;;;5050731;28;20474;-86
2022/08/15 07:11:42;;;;;;;10.60;3.40;;;24.10;1.00;;;;;;5042028;28;20432;-85
2022/08/15 07:15:03;;;;;;;4.20;3.17;;;24.10;1.00;;;;;;5044589;28;20435;-86
2022/08/15 07:18:09;;;;;;;4.53;3.27;;;24.30;1.00;;;;;;5024195;28;20496;-86
2022/08/15 07:21:10;;;;;;;6.90;3.23;;;24.50;1.00;;;;;;5014852;28;20495;-86
2022/08/15 07:24:11;;;;;;;7.10;3.00;;;24.70;1.00;;;;;;5024459;28;20499;-86
2022/08/15 07:27:14;;;;;;;5.60;3.43;;;24.80;1.00;;;;;;5015654;28;20520;-80
2022/08/15 07:29:48;;;;;;;6.20;3.70;;;24.90;1.00;;;;;;5012769;28;21010;-81
2022/08/15 07:32:22;;;;;;;6.27;3.00;;;25.00;1.00;;;;;;5031803;28;20438;-81
2022/08/15 07:35:16;;;;;;;5.00;3.50;;;25.00;1.00;;;;;;5011710;28;20452;-81
2022/08/15 07:38:05;;;;;;;5.40;3.00;;;25.20;1.00;;;;;;5020911;28;20463;-81
2022/08/15 07:40:38;;;;;;;6.10;3.43;;;25.20;1.00;;;;;;5049664;28;20425;-80
2022/08/15 07:43:28;;;;;;;7.43;3.10;;;25.20;1.00;;;;;;5031458;28;20473;-80
2022/08/15 07:46:19;;;;;;;10.97;3.43;;;25.10;1.00;;;;;;4990947;28;20444;-80
2022/08/15 07:49:18;;;;;;;5.93;3.60;;;25.20;1.00;;;;;;4985900;28;20530;-81
2022/08/15 07:52:13;;;;;;;5.93;3.20;;;25.20;1.00;;;;;;4959988;28;20913;-80
2022/08/15 07:54:45;;;;;;;12.33;3.60;;;25.20;1.00;;;;;;4997389;28;20439;-80
2022/08/15 07:57:18;;;;;;;8.67;3.60;;;25.30;1.00;;;;;;4990365;28;20470;-81
2022/08/15 08:00:17;;;;;;;6.60;3.50;;;25.20;1.00;;;;;;4990501;28;20458;-80
2022/08/15 08:03:05;;;;;;;8.57;3.60;;;25.30;1.00;;;;;;4970473;28;20464;-80
2022/08/15 08:06:01;;;;;;;5.83;2.93;;;25.20;1.00;;;;;;4972310;28;20416;-81
2022/08/15 08:08:48;;;;;;;4.80;3.10;;;25.30;1.00;;;;;;4914720;29;20447;-81
2022/08/15 08:11:52;;;;;;;4.70;3.33;;;25.30;1.00;;;;;;4915323;29;20443;-81
2022/08/15 08:14:29;;;;;;;5.73;3.53;;;25.20;1.00;;;;;;4900137;29;20447;-81
2022/08/15 08:17:01;;;;;;;5.50;3.30;;;25.00;1.00;;;;;;4896385;29;20460;-81
2022/08/15 08:20:03;;;;;;;10.20;3.60;;;25.00;1.00;;;;;;4902490;29;20503;-80
2022/08/15 08:22:55;;;;;;;18.03;4.17;;;25.10;1.00;;;;;;4911153;29;20473;-80
2022/08/15 08:25:37;;;;;;;8.70;3.73;;;25.10;1.00;;;;;;4913309;29;20440;-81
2022/08/15 08:28:21;;;;;;;10.73;3.70;;;25.00;1.00;;;;;;4905104;29;20451;-82
2022/08/15 08:31:02;;;;;;;5.57;3.70;;;25.00;1.00;;;;;;4912369;29;20469;-82
2022/08/15 08:34:08;;;;;;;11.80;3.93;;;24.90;1.00;;;;;;4912055;29;20582;-82
2022/08/15 08:36:45;;;;;;;15.30;4.20;;;25.10;1.00;;;;;;4898411;29;20441;-81
2022/08/15 08:39:37;;;;;;;4.20;3.80;;;25.10;1.00;;;;;;4923352;29;20432;-81
2022/08/15 08:42:16;;;;;;;4.80;3.10;;;25.20;1.00;;;;;;4946274;29;20627;-80
2022/08/15 08:44:47;;;;;;;9.13;3.70;;;25.40;1.00;;;;;;4965674;28;20432;-80
2022/08/15 08:47:48;;;;;;;3.73;3.33;;;25.50;1.00;;;;;;5012830;28;20470;-80
2022/08/15 08:50:43;;;;;;;3.43;3.13;;;25.40;1.00;;;;;;5023154;28;20435;-80
2022/08/15 08:53:28;;;;;;;8.20;3.70;;;25.40;1.00;;;;;;5051906;28;20449;-80
2022/08/15 08:55:59;;;;;;;7.00;3.73;;;25.60;1.00;;;;;;5063028;28;20905;-81
2022/08/15 08:59:17;;;;;;;6.37;3.40;;;25.90;1.00;;;;;;5065776;28;20470;-80
2022/08/15 09:01:53;;;;;;;8.80;3.90;;;26.20;1.00;;;;;;5031862;28;20438;-81
2022/08/15 09:04:39;;;;;;;4.53;2.97;;;26.60;1.00;;;;;;5033753;28;21026;-81
2022/08/15 09:07:07;;;;;;;6.67;3.70;;;26.70;1.00;;;;;;5022098;28;20442;-81
2022/08/15 09:10:06;;;;;;;7.50;3.00;;;26.60;1.00;;;;;;5016415;28;20430;-81
2022/08/15 09:15:32;;;;;;;5.90;2.50;;;26.80;1.00;;;;;;5027597;28;20963;-80
2022/08/15 09:18:05;;;;;;;6.40;3.33;;;26.70;1.00;;;;;;5030669;28;21096;-81
2022/08/15 09:20:39;;;;;;;4.83;3.27;;;26.50;1.00;;;;;;5031812;28;20511;-82
2022/08/15 09:23:10;;;;;;;4.50;3.30;;;26.20;1.00;;;;;;5032189;28;20511;-80
2022/08/15 09:25:48;;;;;;;6.20;3.37;;;26.10;1.00;;;;;;5032356;28;20426;-78
2022/08/15 09:28:29;;;;;;;9.13;3.30;;;26.20;1.00;;;;;;5031727;28;20421;-80
2022/08/15 09:30:56;;;;;;;7.80;3.27;;;25.90;1.00;;;;;;4988414;28;20511;-79
2022/08/15 09:33:37;;;;;;;6.20;3.80;;;25.80;1.00;;;;;;5007826;28;20430;-80
2022/08/15 09:36:20;;;;;;;6.03;3.03;;;25.80;1.00;;;;;;4995581;28;20434;-77
2022/08/15 09:39:00;;;;;;;4.80;2.90;;;25.90;1.00;;;;;;5028564;28;20446;-77
2022/08/15 09:41:39;;;;;;;3.70;3.00;;;25.80;1.00;;;;;;5028707;28;20417;-79
2022/08/15 09:44:19;;;;;;;2.57;2.37;;;25.90;1.00;;;;;;5021276;28;20766;-79
2022/08/15 09:47:00;;;;;;;11.23;3.03;;;26.00;1.00;;;;;;5027192;28;20438;-80
2022/08/15 09:49:56;;;;;;;5.20;3.10;;;26.10;1.00;;;;;;5025677;28;20886;-79
2022/08/15 09:52:35;;;;;;;7.13;3.20;;;26.20;1.00;;;;;;5027138;28;20452;-79
2022/08/15 09:55:21;;;;;;;5.83;3.00;;;26.50;1.00;;;;;;5033059;28;20428;-80
2022/08/15 09:57:52;;;;;;;3.03;2.73;;;26.80;1.00;;;;;;5021530;28;20447;-77
2022/08/15 10:00:28;;;;;;;3.87;2.57;;;26.70;1.00;;;;;;5022559;28;20431;-77
2022/08/15 10:03:01;;;;;;;3.43;3.00;;;26.70;1.00;;;;;;5033490;28;20533;-77
2022/08/15 10:05:42;;;;;;;3.27;2.63;;;26.40;1.00;;;;;;5032957;28;20436;-77
2022/08/15 10:08:15;;;;;;;5.13;3.00;;;26.50;1.00;;;;;;5025649;28;20453;-77
2022/08/15 10:10:51;;;;;;;2.83;2.63;;;26.50;1.00;;;;;;5023758;28;20925;-78
2022/08/15 10:13:28;;;;;;;3.20;2.70;;;26.70;1.00;;;;;;5016493;28;20512;-80
2022/08/15 10:16:35;;;;;;;5.43;3.20;;;26.70;1.00;;;;;;5030038;28;20462;-80
2022/08/15 10:19:11;;;;;;;3.97;2.53;;;26.80;1.00;;;;;;5028555;28;20504;-80
2022/08/15 10:22:25;;;;;;;3.87;3.03;;;27.20;1.00;;;;;;5028201;28;20482;-80
2022/08/15 10:25:22;;;;;;;6.30;2.83;;;27.50;1.00;;;;;;5050258;28;20785;-81
2022/08/15 10:28:11;;;;;;;4.37;2.70;;;27.40;1.00;;;;;;5033832;28;23691;-76
2022/08/15 10:30:46;;;;;;;4.60;2.90;;;27.30;1.00;;;;;;5043196;28;20847;-76
2022/08/15 10:33:44;;;;;;;3.40;3.07;;;27.00;1.00;;;;;;5049338;28;20503;-79
2022/08/15 10:36:16;;;;;;;5.73;3.20;;;27.00;1.00;;;;;;5048601;28;20522;-76
2022/08/15 10:38:56;;;;;;;3.67;2.73;;;27.00;1.00;;;;;;5043359;28;20516;-76
2022/08/15 10:41:28;;;;;;;11.23;3.17;;;27.10;1.00;;;;;;5046555;28;20488;-76
2022/08/15 10:44:41;;;;;;;4.63;2.90;;;27.10;1.00;;;;;;5050425;28;20461;-76
2022/08/15 10:47:26;;;;;;;11.53;3.07;;;27.00;1.00;;;;;;5044888;28;20451;-76
2022/08/15 10:50:19;;;;;;;4.60;3.67;;;27.30;1.00;;;;;;5049979;28;20875;-76
2022/08/15 10:53:00;;;;;;;6.43;3.20;;;27.80;1.00;;;;;;5045527;28;20421;-77
2022/08/15 10:55:39;;;;;;;6.50;2.60;;;28.10;1.00;;;;;;5034138;28;21117;-77
2022/08/15 10:58:07;;;;;;;2.67;2.47;;;28.50;1.00;;;;;;5041891;28;20463;-76
2022/08/15 11:01:07;;;;;;;4.60;2.77;;;28.80;1.00;;;;;;5031612;28;20450;-76
2022/08/15 11:03:53;;;;;;;4.90;2.80;;;29.00;1.00;;;;;;5022887;28;20474;-75
2022/08/15 11:06:30;;;;;;;4.60;3.17;;;28.70;1.00;;;;;;5017760;28;20429;-75
2022/08/15 11:09:18;;;;;;;4.43;2.90;;;28.70;1.00;;;;;;5030152;28;20429;-75
2022/08/15 11:12:00;;;;;;;5.33;3.00;;;29.20;1.00;;;;;;5027605;28;20446;-77
2022/08/15 11:14:39;;;;;;;5.03;2.80;;;29.70;1.00;;;;;;5022411;28;20486;-77
2022/08/15 11:17:14;;;;;;;4.60;2.73;;;29.20;1.00;;;;;;5022412;28;20520;-77
2022/08/15 11:19:51;;;;;;;3.23;2.93;;;29.00;1.00;;;;;;5025362;28;20414;-77
2022/08/15 11:22:30;;;;;;;3.60;2.87;;;29.10;1.00;;;;;;5019154;28;20978;-77
2022/08/15 11:25:12;;;;;;;8.50;3.00;;;29.00;1.00;;;;;;5024059;28;20440;-78
2022/08/15 11:27:37;;;;;;;2.97;2.77;;;29.20;1.00;;;;;;5022855;28;20895;-77
2022/08/15 11:30:08;;;;;;;3.83;2.90;;;29.20;1.00;;;;;;5024927;28;20523;-77
2022/08/15 11:32:38;;;;;;;5.07;2.90;;;29.60;1.00;;;;;;5016891;28;20188;-77
2022/08/15 11:35:30;;;;;;;6.43;2.70;;;29.80;1.00;;;;;;5015194;28;20950;-77
2022/08/15 11:37:59;;;;;;;9.03;2.83;;;30.10;1.00;;;;;;5021077;28;20997;-77
2022/08/15 11:40:32;;;;;;;4.10;2.40;;;30.30;1.00;;;;;;5025457;28;20930;-80
2022/08/15 11:43:01;;;;;;;4.13;2.83;;;30.10;1.00;;;;;;5026508;28;20972;-75
2022/08/15 11:45:38;;;;;;;4.30;2.70;;;29.60;1.00;;;;;;5024564;28;20430;-76
2022/08/15 11:48:13;;;;;;;6.57;2.70;;;29.50;1.00;;;;;;5024324;28;20452;-76
2022/08/15 11:50:53;;;;;;;2.93;2.43;;;29.20;1.00;;;;;;5015258;28;20456;-75
2022/08/15 11:53:19;;;;;;;4.43;2.53;;;28.80;1.00;;;;;;5027149;28;21010;-74
2022/08/15 11:55:46;;;;;;;3.83;2.67;;;28.90;1.00;;;;;;5024989;28;20454;-74
2022/08/15 11:58:12;;;;;;;3.10;2.57;;;28.90;1.00;;;;;;5023375;28;20227;-75
2022/08/15 12:00:57;;;;;;;4.00;2.90;;;28.90;1.00;;;;;;5027706;28;20463;-76
2022/08/15 12:03:37;;;;;;;3.37;3.10;;;28.80;1.00;;;;;;5025124;28;20211;-76
2022/08/15 12:06:20;;;;;;;5.27;2.87;;;28.90;1.00;;;;;;5028539;28;20824;-76
2022/08/15 12:08:49;;;;;;;6.67;3.10;;;29.10;1.00;;;;;;5013859;28;20444;-77
2022/08/15 12:11:18;;;;;;;4.53;2.80;;;28.80;1.00;;;;;;5022114;28;20446;-77
2022/08/15 12:14:26;;;;;;;10.03;3.27;;;28.60;1.00;;;;;;5019878;28;20456;-78
2022/08/15 12:16:56;;;;;;;3.37;2.63;;;28.70;1.00;;;;;;5022876;28;20450;-77
2022/08/15 12:19:37;;;;;;;4.60;2.37;;;28.70;1.00;;;;;;5033822;28;20797;-76
2022/08/15 12:22:26;;;;;;;16.03;3.60;;;28.60;1.00;;;;;;5022607;28;20942;-78
2022/08/15 12:24:55;;;;;;;4.00;3.50;;;28.70;1.00;;;;;;5025715;28;20428;-76
2022/08/15 12:27:20;;;;;;;16.50;3.30;;;28.70;1.00;;;;;;5029095;28;20929;-75
2022/08/15 12:30:00;;;;;;;5.33;3.07;;;28.40;1.00;;;;;;5028541;28;20429;-76
2022/08/15 12:32:31;;;;;;;3.37;3.07;;;27.70;1.00;;;;;;5032899;28;20191;-76
2022/08/15 12:34:57;;;;;;;3.13;2.83;;;27.40;1.00;;;;;;5024089;28;20430;-76
2022/08/15 12:37:38;;;;;;;6.70;3.03;;;26.90;1.00;;;;;;5026797;28;20507;-78
2022/08/15 12:40:09;;;;;;;7.00;3.20;;;26.60;1.00;;;;;;5028425;28;20183;-77
2022/08/15 12:42:36;;;;;;;3.60;3.00;;;26.60;1.00;;;;;;5027998;28;20545;-69
2022/08/15 12:45:11;;;;;;;6.57;3.30;;;26.70;1.00;;;;;;5018986;28;20429;-69
2022/08/15 12:47:43;;;;;;;3.30;3.10;;;26.50;1.00;;;;;;5030645;28;20455;-76
2022/08/15 12:50:09;;;;;;;4.43;3.13;;;26.70;1.00;;;;;;5032041;28;20473;-76
2022/08/15 12:52:36;;;;;;;3.87;3.27;;;26.40;1.00;;;;;;5029486;28;20448;-75
2022/08/15 12:55:06;;;;;;;7.67;2.93;;;26.60;1.00;;;;;;5032356;28;20337;-76
2022/08/15 12:57:37;;;;;;;9.20;3.20;;;26.70;1.00;;;;;;5025283;28;20445;-74
2022/08/15 13:00:04;;;;;;;4.80;3.33;;;26.60;1.00;;;;;;5018393;28;20807;-74
2022/08/15 13:02:30;;;;;;;4.63;3.27;;;26.60;1.00;;;;;;5025932;28;20477;-75
2022/08/15 13:04:56;;;;;;;4.70;3.27;;;26.40;1.00;;;;;;5023815;28;20992;-75
2022/08/15 13:07:25;;;;;;;11.10;3.40;;;26.70;1.00;;;;;;5021486;28;20275;-74
2022/08/15 13:09:50;;;;;;;8.57;3.20;;;26.70;1.00;;;;;;5017901;28;20790;-74
2022/08/15 13:12:17;;;;;;;4.03;3.03;;;26.80;1.00;;;;;;5021118;28;20422;-74
2022/08/15 13:14:44;;;;;;;5.13;3.00;;;26.90;1.00;;;;;;5028989;28;20296;-77
2022/08/15 13:17:13;;;;;;;3.13;2.83;;;26.90;1.00;;;;;;5030578;28;20423;-75
2022/08/15 13:25:45;;;;;;;4.73;3.00;;;27.90;1.00;;;;;;5026055;28;20431;-75
2022/08/15 13:28:11;;;;;;;4.17;2.80;;;28.00;1.00;;;;;;5029438;28;20513;-75
2022/08/15 13:30:42;;;;;;;4.50;2.90;;;28.30;1.00;;;;;;5017093;28;20516;-75
2022/08/15 13:33:09;;;;;;;2.83;2.63;;;28.60;1.00;;;;;;5021188;28;20190;-75
2022/08/15 13:35:36;;;;;;;3.07;2.87;;;28.40;1.00;;;;;;5029338;28;20518;-75
2022/08/15 13:38:02;;;;;;;4.67;3.47;;;28.20;1.00;;;;;;5022095;28;20775;-75
2022/08/15 13:40:29;;;;;;;2.77;2.57;;;28.10;1.00;;;;;;5018597;28;20942;-75
2022/08/15 13:43:02;;;;;;;3.70;2.70;;;27.90;1.00;;;;;;5030681;28;20201;-75
2022/08/15 13:45:31;;;;;;;2.80;2.60;;;27.60;1.00;;;;;;5027976;28;20416;-75
2022/08/15 13:47:57;;;;;;;2.80;2.40;;;27.60;1.00;;;;;;5029714;28;20402;-74
2022/08/15 13:50:24;;;;;;;3.10;2.90;;;27.50;1.00;;;;;;5021439;28;20446;-74
2022/08/15 13:52:50;;;;;;;6.10;3.03;;;27.50;1.00;;;;;;5033693;28;20180;-74
2022/08/15 13:55:20;;;;;;;2.80;2.60;;;27.90;1.00;;;;;;5033669;28;20435;-74
2022/08/15 13:58:00;;;;;;;3.43;2.97;;;28.00;1.00;;;;;;5022749;28;21012;-74
2022/08/15 14:00:26;;;;;;;3.10;2.83;;;28.30;1.00;;;;;;5018071;28;20922;-76
2022/08/15 14:02:54;;;;;;;2.87;2.67;;;28.60;1.00;;;;;;5034825;28;20466;-77
2022/08/15 14:05:30;;;;;;;3.40;3.10;;;29.00;1.00;;;;;;5032655;28;20191;-76
2022/08/15 14:07:56;;;;;;;3.77;2.80;;;28.80;1.00;;;;;;5015575;28;20440;-75
2022/08/15 14:10:26;;;;;;;8.70;3.27;;;28.80;1.00;;;;;;5019963;28;20430;-75
2022/08/15 14:12:54;;;;;;;3.37;2.90;;;28.70;1.00;;;;;;5015691;28;20203;-75
2022/08/15 14:15:20;;;;;;;2.40;2.30;;;28.90;1.00;;;;;;5022016;28;20429;-75
2022/08/15 14:17:46;;;;;;;3.60;3.00;;;28.90;1.00;;;;;;5032327;28;20429;-75
2022/08/15 14:20:20;;;;;;;5.03;2.80;;;28.90;1.00;;;;;;5033436;28;20648;-75